Flight Track Log - Related Links

Times and Time Zones

All times are in EDT time to prevent confusion due to time zone crossing. See the EGF3796 flight status page for this flight to view local times or setup timezone preferences in your user account.

Time Position Orientation Groundspeed Altitude Reporting Facility
EDT Latitude Longitude Course Direction KTS MPH feet Rate Location/Type
Thu 06:28:08 PM 39.8925 -84.2108 183° South 145 167 1,700  Level Indianapolis Center
Thu 06:29:04 PM 39.8536 -84.2131 183° South 197 227 3,700 3,103 Climbing Indianapolis Center
Thu 06:30:04 PM 39.8825 -84.2664 305° West 238 274 7,700 3,124 Climbing Indianapolis Center
Thu 06:31:05 PM 39.9519 -84.2678 359° North 259 298 10,000 1,104 Climbing Indianapolis Center
Thu 06:32:09 PM 40.0450 -84.2681 360° North 314 361 10,000 756 Level Indianapolis Center
Thu 06:33:12 PM 40.1464 -84.2706 359° North 354 407 11,600 1,728 Climbing Indianapolis Center
Thu 06:34:14 PM 40.2319 -84.1975 33° Northeast 391 450 13,600 2,000 Climbing Indianapolis Center
Thu 06:35:15 PM 40.2867 -84.0750 60° Northeast 388 447 15,700 2,066 Climbing Indianapolis Center
Thu 06:36:16 PM 40.3422 -83.9497 60° Northeast 390 449 17,800 1,839 Climbing Indianapolis Center
Thu 06:37:19 PM 40.3967 -83.8231 61° Northeast 394 453 19,500 1,403 Climbing Indianapolis Center
Thu 06:38:20 PM 40.4608 -83.6950 57° Northeast 412 474 20,700 1,200 Climbing Indianapolis Center
Thu 06:39:24 PM 40.5522 -83.5419 52° Northeast 440 506 22,000 1,134 Climbing Indianapolis Center
Thu 06:40:27 PM 40.6328 -83.4119 51° Northeast 452 520 23,100 1,056 Climbing Cleveland Center
Thu 06:41:29 PM 40.7156 -83.2783 51° Northeast 467 537 24,200 1,016 Climbing Cleveland Center
Thu 06:42:31 PM 40.7969 -83.1419 52° Northeast 469 540 25,200 1,306 Climbing Cleveland Center
Thu 06:43:33 PM 40.8628 -82.9561 65° Northeast 474 545 26,900 1,548 Climbing Cleveland Center
Thu 06:44:35 PM 40.8967 -82.7950 74° East 453 521 28,400 1,452 Climbing Cleveland Center
Thu 06:45:37 PM 40.9089 -82.6308 84° East 452 520 29,900 1,258 Climbing Cleveland Center
Thu 06:46:39 PM 40.9231 -82.4625 84° East 453 521 31,000 1,065 Climbing Cleveland Center
Thu 06:47:41 PM 40.9389 -82.2892 83° East 467 537 32,100 1,104 Climbing Cleveland Center
Thu 06:48:44 PM 40.9561 -82.0836 84° East 479 551 33,300 1,104 Climbing Cleveland Center
Thu 06:49:46 PM 40.9706 -81.9042 84° East 486 559 34,400 1,065 Climbing Cleveland Center
Thu 06:50:48 PM 40.9847 -81.7250 84° East 488 562 35,500 1,016 Climbing Cleveland Center
Thu 06:51:50 PM 40.9997 -81.5458 84° East 491 565 36,500 726 Climbing Cleveland Center
Thu 06:52:52 PM 41.0131 -81.3669 84° East 490 564 37,000 242 Climbing Cleveland Center
Thu 06:53:54 PM 41.0258 -81.1897 84° East 488 562 37,000  Level Cleveland Center
Thu 06:54:56 PM 41.0408 -80.9833 84° East 485 558 37,000  Level Cleveland Center
Thu 06:55:58 PM 41.0531 -80.8058 85° East 481 554 37,000  Level Cleveland Center
Thu 06:57:00 PM 41.0669 -80.6289 84° East 481 554 37,000  Level Cleveland Center
Thu 06:58:02 PM 41.0792 -80.4517 85° East 481 554 37,000  Level Cleveland Center
Thu 06:59:05 PM 41.0906 -80.2750 85° East 480 552 37,000  Level Cleveland Center
Thu 07:00:07 PM 41.1031 -80.0967 85° East 481 554 37,000  Level Cleveland Center
Thu 07:01:09 PM 41.1175 -79.8839 85° East 481 554 37,000  Level Cleveland Center
Thu 07:02:11 PM 41.1267 -79.7219 86° East 481 554 37,000  Level Cleveland Center
Thu 07:03:13 PM 41.1397 -79.5317 85° East 480 552 37,000  Level Cleveland Center
Thu 07:04:15 PM 41.1506 -79.3550 85° East 480 552 37,000  Level Cleveland Center
Thu 07:05:17 PM 41.1606 -79.1636 86° East 476 548 37,000  Level Cleveland Center
Thu 07:06:19 PM 41.1711 -78.9894 85° East 476 548 37,000  Level Cleveland Center
Thu 07:07:22 PM 41.1808 -78.7967 86° East 474 545 37,000 -384 Level Cleveland Center
Thu 07:08:24 PM 41.1908 -78.6278 85° East 464 534 36,200 -1,016 Descending Cleveland Center
Thu 07:09:26 PM 41.1997 -78.4547 86° East 468 539 34,900 -1,258 Descending Cleveland Center
Thu 07:10:28 PM 41.2081 -78.2806 86° East 471 542 33,600 -919 Descending Cleveland Center
Thu 07:11:30 PM 41.2069 -78.0856 90° East 469 540 33,000 -290 Descending Cleveland Center
Thu 07:12:32 PM 41.1869 -77.9178 99° East 464 534 33,000  Level Cleveland Center
Thu 07:13:34 PM 41.1656 -77.7517 100° East 460 529 33,000  Level Cleveland Center
Thu 07:14:36 PM 41.1453 -77.5836 99° East 460 529 33,000  Level Cleveland Center
Thu 07:15:38 PM 41.1222 -77.4117 100° East 473 544 33,000 -1,104 Level Cleveland Center
Thu 07:16:41 PM 41.0956 -77.2047 100° East 476 548 30,700 -2,304 Descending Cleveland Center
Thu 07:17:43 PM 41.0736 -77.0386 100° East 464 534 28,200 -2,371 Descending Cleveland Center
Thu 07:18:45 PM 41.0511 -76.8733 100° East 463 533 25,800 -2,371 Descending Cleveland Center
Thu 07:19:47 PM 41.0286 -76.7047 100° East 464 534 23,300 -2,177 Descending Cleveland Center
Thu 07:20:49 PM 40.9961 -76.5444 105° East 456 525 21,300 -1,970 Descending Cleveland Center
Thu 07:22:01 PM 40.9483 -76.3564 109° East 449 517 18,900 -1,682 Descending New York Center
Thu 07:23:01 PM 40.9100 -76.1939 107° East 421 484 17,600 -1,600 Descending New York Center
Thu 07:24:01 PM 40.8728 -76.0536 109° East 415 478 15,700 -1,800 Descending New York Center
Thu 07:25:01 PM 40.8411 -75.9169 107° East 405 466 14,000 -1,400 Descending New York Center
Thu 07:26:01 PM 40.8094 -75.7828 107° East 389 448 12,900 -550 Descending New York Center
Thu 07:27:01 PM 40.7769 -75.6625 110° East 383 441 12,900  Level New York Center
Thu 07:28:01 PM 40.7308 -75.5197 113° Southeast 383 441 12,900  Level New York Center
Thu 07:29:01 PM 40.6900 -75.3908 113° Southeast 383 441 12,900 -700 Level New York Center
Thu 07:30:01 PM 40.6492 -75.2594 112° Southeast 383 441 11,500 -1,400 Descending New York Center
Thu 07:31:01 PM 40.6136 -75.1506 113° Southeast 373 429 10,100 -793 Descending New York Center
Thu 07:32:02 PM 40.5725 -75.0250 113° Southeast 341 392 9,900 -100 Descending New York Center
Thu 07:33:01 PM 40.5389 -74.9111 111° Southeast 336 387 9,900 50 Level New York Center
Thu 07:34:01 PM 40.5056 -74.7944 111° Southeast 336 387 10,000 50 Climbing New York Center
Thu 07:35:01 PM 40.4714 -74.6942 114° Southeast 341 392 10,000  Level New York Center
Thu 07:35:37 PM 40.4500 -74.6167 110° East 335 386 10,000  Level New York TRACON
Thu 07:36:31 PM 40.4333 -74.5000 101° East 344 396 10,000  Level New York TRACON
Thu 07:37:31 PM 40.4667 -74.3833 69° East 340 391 10,000 -200 Level New York TRACON
Thu 07:38:31 PM 40.5000 -74.2833 66° East 292 336 9,600 -1,100 Descending New York TRACON
Thu 07:39:31 PM 40.5167 -74.1833 78° East 271 312 7,800 -1,895 Descending New York TRACON
Thu 07:40:25 PM 40.5500 -74.1167 57° Northeast 268 308 6,000 -1,650 Descending New York TRACON
Thu 07:41:31 PM 40.6167 -74.0500 37° Northeast 248 285 4,500 -952 Descending New York TRACON
Thu 07:42:31 PM 40.6833 -74.0333 11° North 235 270 4,000 -250 Descending New York TRACON
Thu 07:43:31 PM 40.7500 -74.0167 11° North 245 282 4,000  Level New York TRACON
Thu 07:44:31 PM 40.8000 -73.9833 27° Northeast 231 266 4,000 -400 Level New York TRACON
Thu 07:45:31 PM 40.8500 -73.9333 37° Northeast 227 261 3,200 -800 Descending New York TRACON
Thu 07:46:31 PM 40.8833 -73.8500 62° Northeast 235 270 2,400 -857 Descending New York TRACON
Thu 07:47:37 PM 40.8333 -73.8333 166° South 149 171 1,400 -857 Descending New York TRACON
Thu 07:48:37 PM 40.8000 -73.8500 201° Southwest 122 140 600 -800 Descending New York TRACON
Thu 07:50:00 PM 40.7667 -73.8667 186° South  Level FlightAware Approximate
Thu 07:57:00 PM 40.7772 -73.8726 186° South  Level Estimated
Thu 07:58:00 PM 40.7772 -73.8726 North  Level Estimated

Login

Don't have an account? Register now (free) for customized features, flight alerts, and more!